sensor_id;sensor_type;location;lat;lon;timestamp;P1;durP1;ratioP1;P2;durP2;ratioP2
52554;SDS011;38455;52.710;6.502;2023-06-10T00:00:42;11.95;;;4.07;;
52554;SDS011;38455;52.710;6.502;2023-06-10T00:03:08;11.63;;;4.20;;
52554;SDS011;38455;52.710;6.502;2023-06-10T00:05:34;8.32;;;3.97;;
52554;SDS011;38455;52.710;6.502;2023-06-10T00:08:01;10.63;;;3.80;;
52554;SDS011;38455;52.710;6.502;2023-06-10T00:10:32;9.85;;;4.35;;
52554;SDS011;38455;52.710;6.502;2023-06-10T00:12:58;7.10;;;3.67;;
52554;SDS011;38455;52.710;6.502;2023-06-10T00:15:24;9.25;;;4.20;;
52554;SDS011;38455;52.710;6.502;2023-06-10T00:17:50;9.35;;;3.85;;
52554;SDS011;38455;52.710;6.502;2023-06-10T00:20:17;11.20;;;3.55;;
52554;SDS011;38455;52.710;6.502;2023-06-10T00:22:43;7.03;;;4.03;;
52554;SDS011;38455;52.710;6.502;2023-06-10T00:25:10;9.18;;;4.03;;
52554;SDS011;38455;52.710;6.502;2023-06-10T00:27:36;8.27;;;3.72;;
52554;SDS011;38455;52.710;6.502;2023-06-10T00:30:03;7.53;;;3.80;;
52554;SDS011;38455;52.710;6.502;2023-06-10T00:32:31;7.20;;;4.07;;
52554;SDS011;38455;52.710;6.502;2023-06-10T00:34:58;12.20;;;4.47;;
52554;SDS011;38455;52.710;6.502;2023-06-10T00:37:23;6.32;;;3.83;;
52554;SDS011;38455;52.710;6.502;2023-06-10T00:39:49;8.43;;;4.47;;
52554;SDS011;38455;52.710;6.502;2023-06-10T00:42:15;12.68;;;4.70;;
52554;SDS011;38455;52.710;6.502;2023-06-10T00:44:40;10.98;;;4.35;;
52554;SDS011;38455;52.710;6.502;2023-06-10T00:47:06;11.75;;;4.45;;
52554;SDS011;38455;52.710;6.502;2023-06-10T00:49:33;7.90;;;4.18;;
52554;SDS011;38455;52.710;6.502;2023-06-10T00:51:59;10.30;;;4.55;;
52554;SDS011;38455;52.710;6.502;2023-06-10T00:54:26;10.65;;;4.15;;
52554;SDS011;38455;52.710;6.502;2023-06-10T00:56:52;8.38;;;4.18;;
52554;SDS011;38455;52.710;6.502;2023-06-10T00:59:18;11.95;;;4.90;;
52554;SDS011;38455;52.710;6.502;2023-06-10T01:01:44;8.70;;;3.80;;
52554;SDS011;38455;52.710;6.502;2023-06-10T01:04:12;7.97;;;4.28;;
52554;SDS011;38455;52.710;6.502;2023-06-10T01:06:45;9.13;;;3.92;;
52554;SDS011;38455;52.710;6.502;2023-06-10T01:09:25;9.07;;;5.20;;
52554;SDS011;38455;52.710;6.502;2023-06-10T01:12:11;9.48;;;4.63;;
52554;SDS011;38455;52.710;6.502;2023-06-10T01:14:49;9.35;;;4.50;;
52554;SDS011;38455;52.710;6.502;2023-06-10T01:17:16;10.73;;;4.40;;
52554;SDS011;38455;52.710;6.502;2023-06-10T01:19:43;9.93;;;4.25;;
52554;SDS011;38455;52.710;6.502;2023-06-10T01:22:09;9.73;;;4.40;;
52554;SDS011;38455;52.710;6.502;2023-06-10T01:24:35;11.90;;;4.25;;
52554;SDS011;38455;52.710;6.502;2023-06-10T01:27:04;10.68;;;4.78;;
52554;SDS011;38455;52.710;6.502;2023-06-10T01:29:36;10.18;;;4.70;;
52554;SDS011;38455;52.710;6.502;2023-06-10T01:32:30;12.43;;;5.18;;
52554;SDS011;38455;52.710;6.502;2023-06-10T01:34:59;10.45;;;4.97;;
52554;SDS011;38455;52.710;6.502;2023-06-10T01:37:26;11.40;;;5.03;;
52554;SDS011;38455;52.710;6.502;2023-06-10T01:39:53;8.02;;;4.68;;
52554;SDS011;38455;52.710;6.502;2023-06-10T01:42:22;8.63;;;4.90;;
52554;SDS011;38455;52.710;6.502;2023-06-10T01:44:48;17.95;;;5.03;;
52554;SDS011;38455;52.710;6.502;2023-06-10T01:47:14;9.20;;;5.30;;
52554;SDS011;38455;52.710;6.502;2023-06-10T01:49:40;8.48;;;5.00;;
52554;SDS011;38455;52.710;6.502;2023-06-10T01:52:05;9.23;;;5.05;;
52554;SDS011;38455;52.710;6.502;2023-06-10T01:54:31;12.95;;;5.13;;
52554;SDS011;38455;52.710;6.502;2023-06-10T01:56:59;8.98;;;4.90;;
52554;SDS011;38455;52.710;6.502;2023-06-10T01:59:25;11.30;;;4.88;;
52554;SDS011;38455;52.710;6.502;2023-06-10T02:01:51;11.45;;;5.53;;
52554;SDS011;38455;52.710;6.502;2023-06-10T02:04:17;10.82;;;5.30;;
52554;SDS011;38455;52.710;6.502;2023-06-10T02:06:42;10.40;;;5.28;;
52554;SDS011;38455;52.710;6.502;2023-06-10T02:09:08;9.40;;;4.70;;
52554;SDS011;38455;52.710;6.502;2023-06-10T02:11:34;7.45;;;4.60;;
52554;SDS011;38455;52.710;6.502;2023-06-10T02:13:59;7.63;;;4.53;;
52554;SDS011;38455;52.710;6.502;2023-06-10T02:16:25;13.32;;;5.25;;
52554;SDS011;38455;52.710;6.502;2023-06-10T02:18:51;9.93;;;5.20;;
52554;SDS011;38455;52.710;6.502;2023-06-10T02:21:17;9.85;;;4.70;;
52554;SDS011;38455;52.710;6.502;2023-06-10T02:23:42;9.48;;;5.30;;
52554;SDS011;38455;52.710;6.502;2023-06-10T02:26:08;17.17;;;5.50;;
52554;SDS011;38455;52.710;6.502;2023-06-10T02:28:34;11.70;;;5.90;;
52554;SDS011;38455;52.710;6.502;2023-06-10T02:30:59;11.35;;;5.70;;
52554;SDS011;38455;52.710;6.502;2023-06-10T02:33:25;11.05;;;5.20;;
52554;SDS011;38455;52.710;6.502;2023-06-10T02:35:52;8.20;;;5.00;;
52554;SDS011;38455;52.710;6.502;2023-06-10T02:38:17;14.75;;;5.60;;
52554;SDS011;38455;52.710;6.502;2023-06-10T02:40:43;11.43;;;5.00;;
52554;SDS011;38455;52.710;6.502;2023-06-10T02:43:09;8.07;;;5.65;;
52554;SDS011;38455;52.710;6.502;2023-06-10T02:45:35;7.50;;;5.00;;
52554;SDS011;38455;52.710;6.502;2023-06-10T02:48:00;10.90;;;5.35;;
52554;SDS011;38455;52.710;6.502;2023-06-10T02:50:26;11.95;;;5.57;;
52554;SDS011;38455;52.710;6.502;2023-06-10T02:52:51;12.18;;;5.10;;
52554;SDS011;38455;52.710;6.502;2023-06-10T02:55:17;9.02;;;4.72;;
52554;SDS011;38455;52.710;6.502;2023-06-10T02:57:43;12.75;;;5.25;;
52554;SDS011;38455;52.710;6.502;2023-06-10T03:00:08;8.13;;;4.95;;
52554;SDS011;38455;52.710;6.502;2023-06-10T03:02:36;10.15;;;5.00;;
52554;SDS011;38455;52.710;6.502;2023-06-10T03:05:05;9.32;;;5.45;;
52554;SDS011;38455;52.710;6.502;2023-06-10T03:07:35;8.35;;;5.35;;
52554;SDS011;38455;52.710;6.502;2023-06-10T03:10:01;11.68;;;6.53;;
52554;SDS011;38455;52.710;6.502;2023-06-10T03:12:27;14.07;;;6.50;;
52554;SDS011;38455;52.710;6.502;2023-06-10T03:14:52;12.63;;;5.47;;
52554;SDS011;38455;52.710;6.502;2023-06-10T03:17:18;11.65;;;5.38;;
52554;SDS011;38455;52.710;6.502;2023-06-10T03:19:45;11.65;;;5.55;;
52554;SDS011;38455;52.710;6.502;2023-06-10T03:22:11;10.18;;;5.38;;
52554;SDS011;38455;52.710;6.502;2023-06-10T03:24:41;8.40;;;5.05;;
52554;SDS011;38455;52.710;6.502;2023-06-10T03:27:09;12.88;;;5.82;;
52554;SDS011;38455;52.710;6.502;2023-06-10T03:29:36;11.35;;;5.10;;
52554;SDS011;38455;52.710;6.502;2023-06-10T03:32:02;8.93;;;5.13;;
52554;SDS011;38455;52.710;6.502;2023-06-10T03:34:28;11.27;;;4.97;;
52554;SDS011;38455;52.710;6.502;2023-06-10T03:36:55;19.52;;;5.50;;
52554;SDS011;38455;52.710;6.502;2023-06-10T03:39:21;10.15;;;5.93;;
52554;SDS011;38455;52.710;6.502;2023-06-10T03:41:48;13.18;;;5.38;;
52554;SDS011;38455;52.710;6.502;2023-06-10T03:44:14;10.45;;;5.68;;
52554;SDS011;38455;52.710;6.502;2023-06-10T03:46:40;11.07;;;5.60;;
52554;SDS011;38455;52.710;6.502;2023-06-10T03:49:06;13.30;;;5.93;;
52554;SDS011;38455;52.710;6.502;2023-06-10T03:51:31;12.10;;;5.93;;
52554;SDS011;38455;52.710;6.502;2023-06-10T03:53:57;10.10;;;6.10;;
52554;SDS011;38455;52.710;6.502;2023-06-10T03:56:24;11.25;;;5.32;;
52554;SDS011;38455;52.710;6.502;2023-06-10T03:58:54;13.57;;;5.05;;
52554;SDS011;38455;52.710;6.502;2023-06-10T04:01:20;8.50;;;4.32;;
52554;SDS011;38455;52.710;6.502;2023-06-10T04:03:46;14.40;;;5.15;;
52554;SDS011;38455;52.710;6.502;2023-06-10T04:06:13;12.38;;;4.88;;
52554;SDS011;38455;52.710;6.502;2023-06-10T04:08:39;8.77;;;4.53;;
52554;SDS011;38455;52.710;6.502;2023-06-10T04:11:06;8.77;;;5.13;;
52554;SDS011;38455;52.710;6.502;2023-06-10T04:13:32;12.82;;;4.90;;
52554;SDS011;38455;52.710;6.502;2023-06-10T04:15:57;11.10;;;5.30;;
52554;SDS011;38455;52.710;6.502;2023-06-10T04:18:23;9.75;;;5.75;;
52554;SDS011;38455;52.710;6.502;2023-06-10T04:20:48;11.82;;;5.35;;
52554;SDS011;38455;52.710;6.502;2023-06-10T04:23:14;10.18;;;4.88;;
52554;SDS011;38455;52.710;6.502;2023-06-10T04:25:40;10.70;;;4.93;;
52554;SDS011;38455;52.710;6.502;2023-06-10T04:28:05;12.60;;;5.47;;
52554;SDS011;38455;52.710;6.502;2023-06-10T04:30:31;10.95;;;5.20;;
52554;SDS011;38455;52.710;6.502;2023-06-10T04:32:57;13.63;;;5.03;;
52554;SDS011;38455;52.710;6.502;2023-06-10T04:35:22;9.50;;;5.45;;
52554;SDS011;38455;52.710;6.502;2023-06-10T04:37:48;14.50;;;4.82;;
52554;SDS011;38455;52.710;6.502;2023-06-10T04:40:14;10.82;;;4.88;;
52554;SDS011;38455;52.710;6.502;2023-06-10T04:42:41;10.02;;;4.63;;
52554;SDS011;38455;52.710;6.502;2023-06-10T04:45:07;12.30;;;6.65;;
52554;SDS011;38455;52.710;6.502;2023-06-10T04:47:33;14.77;;;5.93;;
52554;SDS011;38455;52.710;6.502;2023-06-10T04:50:02;9.65;;;5.25;;
52554;SDS011;38455;52.710;6.502;2023-06-10T04:52:29;9.15;;;4.93;;
52554;SDS011;38455;52.710;6.502;2023-06-10T04:54:57;9.95;;;5.15;;
52554;SDS011;38455;52.710;6.502;2023-06-10T04:57:23;8.07;;;4.45;;
52554;SDS011;38455;52.710;6.502;2023-06-10T04:59:49;11.48;;;5.10;;
52554;SDS011;38455;52.710;6.502;2023-06-10T05:02:14;8.73;;;4.80;;
52554;SDS011;38455;52.710;6.502;2023-06-10T05:04:40;10.35;;;5.15;;
52554;SDS011;38455;52.710;6.502;2023-06-10T05:07:06;10.60;;;4.97;;
52554;SDS011;38455;52.710;6.502;2023-06-10T05:09:31;7.00;;;4.68;;
52554;SDS011;38455;52.710;6.502;2023-06-10T05:11:58;10.00;;;5.25;;
52554;SDS011;38455;52.710;6.502;2023-06-10T05:14:23;13.40;;;4.72;;
52554;SDS011;38455;52.710;6.502;2023-06-10T05:16:49;8.38;;;4.22;;
52554;SDS011;38455;52.710;6.502;2023-06-10T05:19:15;10.10;;;5.00;;
52554;SDS011;38455;52.710;6.502;2023-06-10T05:21:44;12.15;;;4.75;;
52554;SDS011;38455;52.710;6.502;2023-06-10T05:24:10;9.55;;;4.85;;
52554;SDS011;38455;52.710;6.502;2023-06-10T05:26:36;11.85;;;4.80;;
52554;SDS011;38455;52.710;6.502;2023-06-10T05:29:06;12.52;;;5.10;;
52554;SDS011;38455;52.710;6.502;2023-06-10T05:31:33;15.10;;;4.97;;
52554;SDS011;38455;52.710;6.502;2023-06-10T05:33:58;9.13;;;4.07;;
52554;SDS011;38455;52.710;6.502;2023-06-10T05:36:24;9.15;;;4.72;;
52554;SDS011;38455;52.710;6.502;2023-06-10T05:38:52;10.23;;;4.68;;
52554;SDS011;38455;52.710;6.502;2023-06-10T05:41:18;11.32;;;4.10;;
52554;SDS011;38455;52.710;6.502;2023-06-10T05:43:45;7.63;;;4.65;;
52554;SDS011;38455;52.710;6.502;2023-06-10T05:46:10;10.82;;;4.57;;
52554;SDS011;38455;52.710;6.502;2023-06-10T05:48:36;9.00;;;4.57;;
52554;SDS011;38455;52.710;6.502;2023-06-10T05:51:02;8.73;;;4.80;;
52554;SDS011;38455;52.710;6.502;2023-06-10T05:53:27;8.10;;;4.30;;
52554;SDS011;38455;52.710;6.502;2023-06-10T05:55:53;8.75;;;4.40;;
52554;SDS011;38455;52.710;6.502;2023-06-10T05:58:22;11.48;;;5.00;;
52554;SDS011;38455;52.710;6.502;2023-06-10T06:00:48;10.52;;;4.75;;
52554;SDS011;38455;52.710;6.502;2023-06-10T06:03:14;13.13;;;4.35;;
52554;SDS011;38455;52.710;6.502;2023-06-10T06:05:39;10.80;;;4.30;;
52554;SDS011;38455;52.710;6.502;2023-06-10T06:08:05;12.45;;;4.90;;
52554;SDS011;38455;52.710;6.502;2023-06-10T06:10:31;9.98;;;4.63;;
52554;SDS011;38455;52.710;6.502;2023-06-10T06:12:57;6.53;;;4.53;;
52554;SDS011;38455;52.710;6.502;2023-06-10T06:15:22;7.95;;;4.20;;
52554;SDS011;38455;52.710;6.502;2023-06-10T06:17:48;10.10;;;4.95;;
52554;SDS011;38455;52.710;6.502;2023-06-10T06:20:14;7.57;;;4.15;;
52554;SDS011;38455;52.710;6.502;2023-06-10T06:22:39;6.88;;;4.07;;
52554;SDS011;38455;52.710;6.502;2023-06-10T06:25:05;7.88;;;4.32;;
52554;SDS011;38455;52.710;6.502;2023-06-10T06:27:31;10.05;;;4.32;;
52554;SDS011;38455;52.710;6.502;2023-06-10T06:29:57;9.65;;;4.80;;
52554;SDS011;38455;52.710;6.502;2023-06-10T06:32:22;9.73;;;4.75;;
52554;SDS011;38455;52.710;6.502;2023-06-10T06:34:49;5.95;;;3.80;;
52554;SDS011;38455;52.710;6.502;2023-06-10T06:37:19;10.00;;;4.15;;
52554;SDS011;38455;52.710;6.502;2023-06-10T06:39:52;8.50;;;4.32;;
52554;SDS011;38455;52.710;6.502;2023-06-10T06:42:18;10.20;;;4.28;;
52554;SDS011;38455;52.710;6.502;2023-06-10T06:44:46;13.48;;;4.78;;
52554;SDS011;38455;52.710;6.502;2023-06-10T06:47:12;10.00;;;4.60;;
52554;SDS011;38455;52.710;6.502;2023-06-10T06:49:38;8.38;;;3.90;;
52554;SDS011;38455;52.710;6.502;2023-06-10T06:52:03;10.50;;;4.43;;
52554;SDS011;38455;52.710;6.502;2023-06-10T06:54:29;8.63;;;3.90;;
52554;SDS011;38455;52.710;6.502;2023-06-10T06:56:55;6.47;;;3.38;;
52554;SDS011;38455;52.710;6.502;2023-06-10T06:59:21;9.48;;;3.63;;
52554;SDS011;38455;52.710;6.502;2023-06-10T07:01:46;8.20;;;3.60;;
52554;SDS011;38455;52.710;6.502;2023-06-10T07:04:14;5.22;;;3.50;;
52554;SDS011;38455;52.710;6.502;2023-06-10T07:06:40;10.88;;;4.50;;
52554;SDS011;38455;52.710;6.502;2023-06-10T07:09:07;7.03;;;4.03;;
52554;SDS011;38455;52.710;6.502;2023-06-10T07:11:34;8.50;;;3.67;;
52554;SDS011;38455;52.710;6.502;2023-06-10T07:13:59;8.15;;;3.60;;
52554;SDS011;38455;52.710;6.502;2023-06-10T07:16:25;7.05;;;3.70;;
52554;SDS011;38455;52.710;6.502;2023-06-10T07:18:52;8.38;;;3.65;;
52554;SDS011;38455;52.710;6.502;2023-06-10T07:21:18;8.57;;;3.85;;
52554;SDS011;38455;52.710;6.502;2023-06-10T07:23:44;5.70;;;3.38;;
52554;SDS011;38455;52.710;6.502;2023-06-10T07:26:10;14.15;;;3.78;;
52554;SDS011;38455;52.710;6.502;2023-06-10T07:28:44;9.13;;;3.92;;
52554;SDS011;38455;52.710;6.502;2023-06-10T07:31:10;8.03;;;3.63;;
52554;SDS011;38455;52.710;6.502;2023-06-10T07:33:37;9.95;;;4.30;;
52554;SDS011;38455;52.710;6.502;2023-06-10T07:36:04;8.20;;;3.40;;
52554;SDS011;38455;52.710;6.502;2023-06-10T07:38:30;8.73;;;3.40;;
52554;SDS011;38455;52.710;6.502;2023-06-10T07:40:56;9.77;;;3.63;;
52554;SDS011;38455;52.710;6.502;2023-06-10T07:43:22;7.25;;;3.40;;
52554;SDS011;38455;52.710;6.502;2023-06-10T07:45:48;6.55;;;3.42;;
52554;SDS011;38455;52.710;6.502;2023-06-10T07:48:14;8.25;;;3.78;;
52554;SDS011;38455;52.710;6.502;2023-06-10T07:50:39;5.22;;;3.20;;
52554;SDS011;38455;52.710;6.502;2023-06-10T07:53:05;6.35;;;3.47;;
52554;SDS011;38455;52.710;6.502;2023-06-10T07:55:31;6.32;;;2.72;;
52554;SDS011;38455;52.710;6.502;2023-06-10T07:57:56;5.50;;;3.30;;
52554;SDS011;38455;52.710;6.502;2023-06-10T08:00:22;10.40;;;3.80;;
52554;SDS011;38455;52.710;6.502;2023-06-10T08:02:48;6.25;;;3.25;;
52554;SDS011;38455;52.710;6.502;2023-06-10T08:05:13;6.38;;;3.35;;
52554;SDS011;38455;52.710;6.502;2023-06-10T08:07:39;15.15;;;3.60;;
52554;SDS011;38455;52.710;6.502;2023-06-10T08:10:05;6.40;;;3.58;;
52554;SDS011;38455;52.710;6.502;2023-06-10T08:12:32;5.65;;;3.08;;
52554;SDS011;38455;52.710;6.502;2023-06-10T08:14:59;10.85;;;3.15;;
52554;SDS011;38455;52.710;6.502;2023-06-10T08:17:25;8.50;;;2.80;;
52554;SDS011;38455;52.710;6.502;2023-06-10T08:19:50;5.40;;;2.90;;
52554;SDS011;38455;52.710;6.502;2023-06-10T08:22:16;11.38;;;3.28;;
52554;SDS011;38455;52.710;6.502;2023-06-10T08:24:42;5.10;;;3.25;;
52554;SDS011;38455;52.710;6.502;2023-06-10T08:27:08;7.72;;;3.35;;
52554;SDS011;38455;52.710;6.502;2023-06-10T08:29:33;5.57;;;3.20;;
52554;SDS011;38455;52.710;6.502;2023-06-10T08:31:59;8.82;;;3.28;;
52554;SDS011;38455;52.710;6.502;2023-06-10T08:34:25;6.13;;;3.28;;
52554;SDS011;38455;52.710;6.502;2023-06-10T08:36:51;8.98;;;3.22;;
52554;SDS011;38455;52.710;6.502;2023-06-10T08:39:18;6.07;;;2.85;;
52554;SDS011;38455;52.710;6.502;2023-06-10T08:41:47;6.78;;;3.22;;
52554;SDS011;38455;52.710;6.502;2023-06-10T08:44:35;4.60;;;3.10;;
52554;SDS011;38455;52.710;6.502;2023-06-10T08:47:05;6.22;;;2.90;;
52554;SDS011;38455;52.710;6.502;2023-06-10T08:49:37;5.05;;;2.65;;
52554;SDS011;38455;52.710;6.502;2023-06-10T08:52:06;5.68;;;2.70;;
52554;SDS011;38455;52.710;6.502;2023-06-10T08:54:33;5.70;;;3.45;;
52554;SDS011;38455;52.710;6.502;2023-06-10T08:57:03;5.63;;;2.90;;
52554;SDS011;38455;52.710;6.502;2023-06-10T08:59:34;8.10;;;3.55;;
52554;SDS011;38455;52.710;6.502;2023-06-10T09:02:00;9.07;;;3.75;;
52554;SDS011;38455;52.710;6.502;2023-06-10T09:04:27;6.35;;;3.22;;
52554;SDS011;38455;52.710;6.502;2023-06-10T09:06:53;7.55;;;3.55;;
52554;SDS011;38455;52.710;6.502;2023-06-10T09:09:20;7.22;;;3.30;;
52554;SDS011;38455;52.710;6.502;2023-06-10T09:11:47;9.02;;;3.38;;
52554;SDS011;38455;52.710;6.502;2023-06-10T09:14:13;5.60;;;3.35;;
52554;SDS011;38455;52.710;6.502;2023-06-10T09:16:39;10.43;;;3.38;;
52554;SDS011;38455;52.710;6.502;2023-06-10T09:19:05;5.55;;;3.05;;
52554;SDS011;38455;52.710;6.502;2023-06-10T09:21:33;7.15;;;3.10;;
52554;SDS011;38455;52.710;6.502;2023-06-10T09:24:00;12.57;;;3.80;;
52554;SDS011;38455;52.710;6.502;2023-06-10T09:26:29;8.32;;;3.78;;
52554;SDS011;38455;52.710;6.502;2023-06-10T09:29:05;7.30;;;3.58;;
52554;SDS011;38455;52.710;6.502;2023-06-10T09:31:34;6.18;;;3.15;;
52554;SDS011;38455;52.710;6.502;2023-06-10T09:36:33;8.38;;;4.32;;
52554;SDS011;38455;52.710;6.502;2023-06-10T09:39:00;6.82;;;3.30;;
52554;SDS011;38455;52.710;6.502;2023-06-10T09:41:35;7.15;;;2.97;;
52554;SDS011;38455;52.710;6.502;2023-06-10T09:44:09;6.45;;;3.35;;
52554;SDS011;38455;52.710;6.502;2023-06-10T09:46:37;6.32;;;3.47;;
52554;SDS011;38455;52.710;6.502;2023-06-10T09:49:03;6.72;;;3.30;;
52554;SDS011;38455;52.710;6.502;2023-06-10T09:51:28;9.93;;;3.92;;
52554;SDS011;38455;52.710;6.502;2023-06-10T09:53:54;7.60;;;3.40;;
52554;SDS011;38455;52.710;6.502;2023-06-10T09:56:20;5.05;;;3.28;;
52554;SDS011;38455;52.710;6.502;2023-06-10T09:58:49;5.35;;;3.47;;
52554;SDS011;38455;52.710;6.502;2023-06-10T10:01:17;5.72;;;3.35;;
52554;SDS011;38455;52.710;6.502;2023-06-10T10:03:44;7.25;;;3.40;;
52554;SDS011;38455;52.710;6.502;2023-06-10T10:06:11;5.50;;;3.20;;
52554;SDS011;38455;52.710;6.502;2023-06-10T10:08:37;5.30;;;2.97;;
52554;SDS011;38455;52.710;6.502;2023-06-10T10:11:03;8.18;;;3.15;;
52554;SDS011;38455;52.710;6.502;2023-06-10T10:13:28;4.85;;;2.90;;
52554;SDS011;38455;52.710;6.502;2023-06-10T10:15:59;18.88;;;3.33;;
52554;SDS011;38455;52.710;6.502;2023-06-10T10:18:29;7.47;;;3.53;;
52554;SDS011;38455;52.710;6.502;2023-06-10T10:20:56;7.20;;;3.47;;
52554;SDS011;38455;52.710;6.502;2023-06-10T10:23:26;9.63;;;3.55;;
52554;SDS011;38455;52.710;6.502;2023-06-10T10:26:00;6.05;;;3.30;;
52554;SDS011;38455;52.710;6.502;2023-06-10T10:28:43;6.53;;;3.25;;
52554;SDS011;38455;52.710;6.502;2023-06-10T10:31:14;6.68;;;2.83;;
52554;SDS011;38455;52.710;6.502;2023-06-10T10:33:46;9.82;;;3.45;;
52554;SDS011;38455;52.710;6.502;2023-06-10T10:36:19;7.22;;;3.03;;
52554;SDS011;38455;52.710;6.502;2023-06-10T10:38:45;14.65;;;2.90;;
52554;SDS011;38455;52.710;6.502;2023-06-10T10:41:12;8.23;;;3.30;;
52554;SDS011;38455;52.710;6.502;2023-06-10T10:43:39;4.38;;;3.10;;
52554;SDS011;38455;52.710;6.502;2023-06-10T10:46:12;3.65;;;2.70;;
52554;SDS011;38455;52.710;6.502;2023-06-10T10:48:39;4.40;;;3.43;;
52554;SDS011;38455;52.710;6.502;2023-06-10T10:51:08;6.53;;;2.85;;
52554;SDS011;38455;52.710;6.502;2023-06-10T10:53:34;4.78;;;2.65;;
52554;SDS011;38455;52.710;6.502;2023-06-10T10:56:12;8.35;;;2.95;;
52554;SDS011;38455;52.710;6.502;2023-06-10T10:58:39;5.63;;;2.60;;
52554;SDS011;38455;52.710;6.502;2023-06-10T11:01:14;4.25;;;2.95;;
52554;SDS011;38455;52.710;6.502;2023-06-10T11:03:43;7.35;;;3.03;;
52554;SDS011;38455;52.710;6.502;2023-06-10T11:06:13;5.22;;;2.58;;
52554;SDS011;38455;52.710;6.502;2023-06-10T11:11:19;6.80;;;2.50;;
52554;SDS011;38455;52.710;6.502;2023-06-10T11:16:29;5.50;;;3.00;;
52554;SDS011;38455;52.710;6.502;2023-06-10T11:19:03;4.70;;;2.80;;
52554;SDS011;38455;52.710;6.502;2023-06-10T11:21:28;4.60;;;2.83;;
52554;SDS011;38455;52.710;6.502;2023-06-10T11:23:57;5.03;;;2.53;;
52554;SDS011;38455;52.710;6.502;2023-06-10T11:31:26;4.05;;;2.42;;
52554;SDS011;38455;52.710;6.502;2023-06-10T11:34:02;8.27;;;2.37;;
52554;SDS011;38455;52.710;6.502;2023-06-10T11:36:30;4.22;;;2.50;;
52554;SDS011;38455;52.710;6.502;2023-06-10T11:38:59;3.70;;;2.00;;
52554;SDS011;38455;52.710;6.502;2023-06-10T11:41:27;3.47;;;2.13;;
52554;SDS011;38455;52.710;6.502;2023-06-10T11:43:54;8.10;;;2.55;;
52554;SDS011;38455;52.710;6.502;2023-06-10T11:46:23;7.22;;;2.13;;
52554;SDS011;38455;52.710;6.502;2023-06-10T11:48:52;5.90;;;2.58;;
52554;SDS011;38455;52.710;6.502;2023-06-10T11:51:19;4.25;;;2.50;;
52554;SDS011;38455;52.710;6.502;2023-06-10T11:53:48;4.35;;;2.53;;
52554;SDS011;38455;52.710;6.502;2023-06-10T11:56:24;3.67;;;2.30;;
52554;SDS011;38455;52.710;6.502;2023-06-10T11:59:02;3.33;;;2.00;;
52554;SDS011;38455;52.710;6.502;2023-06-10T12:01:33;4.22;;;2.75;;
52554;SDS011;38455;52.710;6.502;2023-06-10T12:04:00;6.20;;;2.40;;
52554;SDS011;38455;52.710;6.502;2023-06-10T12:06:26;3.58;;;2.00;;
52554;SDS011;38455;52.710;6.502;2023-06-10T12:08:53;3.85;;;2.30;;
52554;SDS011;38455;52.710;6.502;2023-06-10T12:11:20;6.55;;;2.83;;
52554;SDS011;38455;52.710;6.502;2023-06-10T12:13:46;5.28;;;2.85;;
52554;SDS011;38455;52.710;6.502;2023-06-10T12:16:16;3.92;;;2.38;;
52554;SDS011;38455;52.710;6.502;2023-06-10T12:18:45;2.95;;;2.10;;
52554;SDS011;38455;52.710;6.502;2023-06-10T12:21:30;4.63;;;2.33;;
52554;SDS011;38455;52.710;6.502;2023-06-10T12:24:01;3.95;;;2.17;;
52554;SDS011;38455;52.710;6.502;2023-06-10T12:26:37;5.88;;;2.55;;
52554;SDS011;38455;52.710;6.502;2023-06-10T12:29:16;5.57;;;2.85;;
52554;SDS011;38455;52.710;6.502;2023-06-10T12:31:56;5.00;;;2.33;;
52554;SDS011;38455;52.710;6.502;2023-06-10T12:34:30;3.65;;;1.60;;
52554;SDS011;38455;52.710;6.502;2023-06-10T12:37:00;3.15;;;2.00;;
52554;SDS011;38455;52.710;6.502;2023-06-10T12:39:26;3.40;;;1.73;;
52554;SDS011;38455;52.710;6.502;2023-06-10T12:41:52;4.68;;;2.30;;
52554;SDS011;38455;52.710;6.502;2023-06-10T12:44:18;4.55;;;2.40;;
52554;SDS011;38455;52.710;6.502;2023-06-10T12:46:55;3.58;;;1.90;;
52554;SDS011;38455;52.710;6.502;2023-06-10T12:49:21;3.58;;;1.63;;
52554;SDS011;38455;52.710;6.502;2023-06-10T12:51:47;4.88;;;2.00;;
52554;SDS011;38455;52.710;6.502;2023-06-10T12:54:13;2.97;;;2.10;;
52554;SDS011;38455;52.710;6.502;2023-06-10T12:56:39;4.22;;;2.22;;
52554;SDS011;38455;52.710;6.502;2023-06-10T12:59:04;4.00;;;1.95;;
52554;SDS011;38455;52.710;6.502;2023-06-10T13:01:31;3.47;;;2.28;;
52554;SDS011;38455;52.710;6.502;2023-06-10T13:03:57;5.40;;;2.17;;
52554;SDS011;38455;52.710;6.502;2023-06-10T13:06:23;5.10;;;1.90;;
52554;SDS011;38455;52.710;6.502;2023-06-10T13:08:49;4.18;;;2.08;;
52554;SDS011;38455;52.710;6.502;2023-06-10T13:11:15;5.97;;;2.38;;
52554;SDS011;38455;52.710;6.502;2023-06-10T13:13:41;3.58;;;2.00;;
52554;SDS011;38455;52.710;6.502;2023-06-10T13:16:07;3.97;;;2.25;;
52554;SDS011;38455;52.710;6.502;2023-06-10T13:18:33;5.82;;;2.65;;
52554;SDS011;38455;52.710;6.502;2023-06-10T13:21:05;2.65;;;1.73;;
52554;SDS011;38455;52.710;6.502;2023-06-10T13:23:31;3.60;;;2.20;;
52554;SDS011;38455;52.710;6.502;2023-06-10T13:25:57;4.78;;;1.90;;
52554;SDS011;38455;52.710;6.502;2023-06-10T13:28:23;4.13;;;3.10;;
52554;SDS011;38455;52.710;6.502;2023-06-10T13:30:49;3.85;;;2.45;;
52554;SDS011;38455;52.710;6.502;2023-06-10T13:33:15;7.15;;;4.20;;
52554;SDS011;38455;52.710;6.502;2023-06-10T13:35:40;3.67;;;2.67;;
52554;SDS011;38455;52.710;6.502;2023-06-10T13:38:06;2.75;;;1.98;;
52554;SDS011;38455;52.710;6.502;2023-06-10T13:40:32;3.72;;;2.50;;
52554;SDS011;38455;52.710;6.502;2023-06-10T13:42:58;3.08;;;1.70;;
52554;SDS011;38455;52.710;6.502;2023-06-10T13:45:23;3.72;;;2.08;;
52554;SDS011;38455;52.710;6.502;2023-06-10T13:47:49;5.88;;;3.20;;
52554;SDS011;38455;52.710;6.502;2023-06-10T13:50:15;6.05;;;3.08;;
52554;SDS011;38455;52.710;6.502;2023-06-10T13:52:41;3.97;;;2.22;;
52554;SDS011;38455;52.710;6.502;2023-06-10T13:55:07;5.80;;;2.35;;
52554;SDS011;38455;52.710;6.502;2023-06-10T13:57:33;4.75;;;1.90;;
52554;SDS011;38455;52.710;6.502;2023-06-10T13:59:58;2.63;;;1.90;;
52554;SDS011;38455;52.710;6.502;2023-06-10T14:02:24;4.43;;;1.80;;
52554;SDS011;38455;52.710;6.502;2023-06-10T14:04:50;4.45;;;2.40;;
52554;SDS011;38455;52.710;6.502;2023-06-10T14:07:16;6.43;;;2.00;;
52554;SDS011;38455;52.710;6.502;2023-06-10T14:09:42;5.05;;;2.00;;
52554;SDS011;38455;52.710;6.502;2023-06-10T14:12:08;4.82;;;2.20;;
52554;SDS011;38455;52.710;6.502;2023-06-10T14:14:34;2.85;;;1.92;;
52554;SDS011;38455;52.710;6.502;2023-06-10T14:17:01;5.07;;;2.10;;
52554;SDS011;38455;52.710;6.502;2023-06-10T14:19:28;3.25;;;2.13;;
52554;SDS011;38455;52.710;6.502;2023-06-10T14:21:53;3.42;;;2.30;;
52554;SDS011;38455;52.710;6.502;2023-06-10T14:24:20;4.80;;;2.05;;
52554;SDS011;38455;52.710;6.502;2023-06-10T14:26:46;4.57;;;2.40;;
52554;SDS011;38455;52.710;6.502;2023-06-10T14:29:12;3.13;;;2.25;;
52554;SDS011;38455;52.710;6.502;2023-06-10T14:31:42;5.07;;;2.55;;
52554;SDS011;38455;52.710;6.502;2023-06-10T14:34:07;5.18;;;2.40;;
52554;SDS011;38455;52.710;6.502;2023-06-10T14:36:33;9.40;;;3.22;;
52554;SDS011;38455;52.710;6.502;2023-06-10T14:38:59;3.97;;;2.40;;
52554;SDS011;38455;52.710;6.502;2023-06-10T14:41:25;5.25;;;2.38;;
52554;SDS011;38455;52.710;6.502;2023-06-10T14:43:51;5.97;;;2.28;;
52554;SDS011;38455;52.710;6.502;2023-06-10T14:46:17;4.82;;;2.63;;
52554;SDS011;38455;52.710;6.502;2023-06-10T14:48:45;3.78;;;2.65;;
52554;SDS011;38455;52.710;6.502;2023-06-10T14:51:11;3.75;;;2.75;;
52554;SDS011;38455;52.710;6.502;2023-06-10T14:53:36;2.67;;;2.30;;
52554;SDS011;38455;52.710;6.502;2023-06-10T14:56:02;5.07;;;3.03;;